Airfield :







YOU CAN JOIN US ON...

 
LOGIN :

Register | Disclaimer

   EN    FR    IT 

 









Legend :    VFR   Marginal VFR   IFR   Intensive IFR   Very Intensive IFR
Visi :
Ceiling :
>= 8 km
>= 3000ft
5 to 8 km
1000 to 3000 ft
1500m to 5 km
500 to 1000 ft
800 to 1500m
200 to 500 ft
< 800m
< 200 ft
Symbols :   Thunderstorms  Fog  Heavy snow  Heavy precipitations  Wind > 20 kt






- Airport Elevation : 1411 ft
- IATA code : VLN


SVVA - Arturo Michelena Int.

CURRENT METAR :
  • 271103Z AUTO NIL

EXPIRED METARs :
  • 271100Z /////KT 9999 SCT016 19/19 Q1014
  • 271003Z AUTO NIL
  • 270903Z AUTO NIL

TAF TAF SVVA
Valid from the 26 at 18:00 until the 27 at 18:00 UTC


261600Z 2618/2718 20005KT 9999 SCT016 BKN080 TX33/2619 TN23/2709
BECMG 2618/2622 VRB05KT 9000 DZ BKN020 FM 262230 12005KT 9999 SCT020 BKN100
SVZM FIR / South America



MET'MAP, your aeronautical weather chart ! - Copyright ORBIFLY December 2007 - Disclaimer

ORBIFLY MET'MAP TEAM :

Programming & Development : Alexandra Zaïnal
Original concept : Baudouin d'Aumeries
Technical & hardware support : Manuel Goepfert
Assistance : Marc-Olivier Méhu




SOURCES & CREDITS :

   NOAA